Terminal Aerodrome Forecast
Issued by NWS Cleveland, OH

Home | Current Version | Previous Version | Graphics & Text | Print | Product List | Glossary On
Versions: 1 2 3 4 5 6 7 8 9 10 11 12 13 14 15 16 17 18 19 20 21 22 23 24 25 26 27 28 29 30 31 32
000
FTUS41 KCLE 252056 AAA
TAFCLE
TAF AMD
KCLE 252056Z 2521/2624 21012G18KT P6SM BKN070 BKN100
     FM260500 21012KT 5SM -SHRA OVC030
     FM261400 26012G18KT P6SM OVC020
     FM261600 03015KT P6SM OVC020
      TEMPO 2616/2619 OVC010=

USA.gov is the U.S. government's official web portal to all federal, state and local government web resources and services.